Time;durP1;ratioP1;P1;durP2;ratioP2;P2;SDS_P1;SDS_P2;PMS_P1;PMS_P2;Temp;Humidity;BMP_temperature;BMP_pressure;BME280_temperature;BME280_humidity;BME280_pressure;Samples;Min_cycle;Max_cycle;Signal;HPM_P1;HPM_P2
2022/01/19 00:02:17;;;;;;;40.88;20.73;;;5.10;99.90;;;;;;5060333;28;20063;-68
2022/01/19 00:04:43;;;;;;;41.88;19.42;;;5.00;99.90;;;;;;5052900;28;20040;-68
2022/01/19 00:07:08;;;;;;;36.90;18.10;;;5.00;99.90;;;;;;5063936;28;20052;-68
2022/01/19 00:09:34;;;;;;;31.30;16.85;;;5.00;99.90;;;;;;5059586;28;20370;-68
2022/01/19 00:11:59;;;;;;;28.40;14.77;;;5.00;99.90;;;;;;5066728;28;20051;-68
2022/01/19 00:14:26;;;;;;;35.47;18.20;;;5.00;99.90;;;;;;5060799;28;20037;-67
2022/01/19 00:16:52;;;;;;;37.22;18.40;;;5.00;99.90;;;;;;5058639;28;20064;-68
2022/01/19 00:19:17;;;;;;;33.17;15.88;;;4.90;99.90;;;;;;5050801;28;20151;-68
2022/01/19 00:21:43;;;;;;;32.75;15.07;;;4.80;99.90;;;;;;5054198;28;20480;-68
2022/01/19 00:24:08;;;;;;;35.63;15.82;;;4.80;99.90;;;;;;5067210;28;20043;-68
2022/01/19 00:26:34;;;;;;;31.30;15.15;;;4.80;99.90;;;;;;5067934;28;20055;-68
2022/01/19 00:29:00;;;;;;;36.55;16.83;;;5.30;99.90;;;;;;5065678;28;20552;-67
2022/01/19 00:31:25;;;;;;;30.00;13.55;;;4.70;99.90;;;;;;5066758;28;20040;-68
2022/01/19 00:33:51;;;;;;;35.80;17.25;;;4.80;99.90;;;;;;5054839;28;20128;-67
2022/01/19 00:36:16;;;;;;;29.92;13.32;;;4.80;99.90;;;;;;5050753;28;20040;-68
2022/01/19 00:38:42;;;;;;;35.13;16.13;;;4.70;99.90;;;;;;5056793;28;20052;-68
2022/01/19 00:41:08;;;;;;;38.22;17.30;;;4.80;99.90;;;;;;5055482;28;20111;-68
2022/01/19 00:43:36;;;;;;;37.22;15.20;;;4.70;99.90;;;;;;5056576;28;20374;-68
2022/01/19 00:46:02;;;;;;;38.00;16.13;;;4.70;99.90;;;;;;5067172;28;20381;-68
2022/01/19 00:48:28;;;;;;;31.52;14.80;;;4.70;99.90;;;;;;5058498;28;20493;-68
2022/01/19 00:50:54;;;;;;;32.10;15.43;;;4.70;99.90;;;;;;5048255;28;20064;-68
2022/01/19 00:53:20;;;;;;;36.75;15.82;;;4.70;99.90;;;;;;5054427;28;20421;-67
2022/01/19 00:55:46;;;;;;;36.60;15.60;;;4.70;99.90;;;;;;5064676;28;20135;-69
2022/01/19 00:58:12;;;;;;;43.80;19.00;;;4.60;99.90;;;;;;5066658;28;20170;-68
2022/01/19 01:00:38;;;;;;;40.88;18.23;;;4.60;99.90;;;;;;5065390;28;20524;-68
2022/01/19 01:03:04;;;;;;;41.40;18.75;;;4.60;99.90;;;;;;5065307;28;20055;-67
2022/01/19 01:05:30;;;;;;;40.22;18.35;;;4.60;99.90;;;;;;5068386;28;20407;-67
2022/01/19 01:07:56;;;;;;;44.10;18.50;;;4.60;99.90;;;;;;5061301;28;20041;-68
2022/01/19 01:10:23;;;;;;;43.88;19.58;;;4.60;99.90;;;;;;5069019;28;20041;-68
2022/01/19 01:12:51;;;;;;;45.92;19.80;;;4.60;99.90;;;;;;5060586;28;20055;-68
2022/01/19 01:18:19;;;;;;;37.92;18.58;;;4.70;99.90;;;;;;5059853;28;20049;-67
2022/01/19 01:20:50;;;;;;;51.85;20.73;;;4.70;99.90;;;;;;5034434;28;20037;-68
2022/01/19 01:23:17;;;;;;;45.55;20.23;;;4.60;99.90;;;;;;5055294;28;20529;-68
2022/01/19 01:25:43;;;;;;;48.60;22.20;;;4.60;99.90;;;;;;5071141;28;20083;-67
2022/01/19 01:28:08;;;;;;;44.80;19.48;;;4.60;99.90;;;;;;5069456;28;20129;-68
2022/01/19 01:30:35;;;;;;;45.60;19.38;;;4.70;99.90;;;;;;5068975;28;20044;-68
2022/01/19 01:33:01;;;;;;;45.78;20.65;;;4.70;99.90;;;;;;5070114;28;20044;-67
2022/01/19 01:35:27;;;;;;;51.78;22.15;;;4.60;99.90;;;;;;5057074;28;20048;-68
2022/01/19 01:37:52;;;;;;;54.17;23.55;;;4.50;99.90;;;;;;5054868;28;20050;-68
2022/01/19 01:40:19;;;;;;;56.08;23.35;;;4.50;99.90;;;;;;5072153;28;20496;-68
2022/01/19 01:42:45;;;;;;;59.92;22.42;;;4.50;99.90;;;;;;5056217;28;20075;-68
2022/01/19 01:45:13;;;;;;;60.72;24.65;;;4.50;99.90;;;;;;5070900;28;20033;-68
2022/01/19 01:47:44;;;;;;;49.03;21.80;;;4.80;99.90;;;;;;5068079;28;20086;-68
2022/01/19 01:55:25;;;;;;;60.30;23.33;;;4.50;99.90;;;;;;5032467;28;20045;-68
2022/01/19 01:57:52;;;;;;;54.22;22.30;;;4.60;99.90;;;;;;5036516;28;20388;-68
2022/01/19 02:00:22;;;;;;;42.20;19.42;;;4.60;99.90;;;;;;5052562;28;20049;-68
2022/01/19 02:02:48;;;;;;;51.47;21.27;;;4.50;99.90;;;;;;5057311;28;20048;-68
2022/01/19 02:05:15;;;;;;;59.13;22.08;;;4.50;99.90;;;;;;5070411;28;20072;-67
2022/01/19 02:10:43;;;;;;;;;;;4.50;99.90;;;;;;5043927;28;20041;-68
2022/01/19 02:16:17;;;;;;;57.10;23.25;;;4.50;99.90;;;;;;5069416;28;20135;-68
2022/01/19 02:21:57;;;;;;;59.50;23.92;;;4.50;99.90;;;;;;5042941;28;20057;-67
2022/01/19 02:24:29;;;;;;;55.25;22.05;;;4.50;99.90;;;;;;5051911;28;20041;-68
2022/01/19 02:27:05;;;;;;;58.80;24.08;;;4.50;99.90;;;;;;5047463;28;20128;-68
2022/01/19 02:42:39;;;;;;;53.50;21.90;;;4.60;99.90;;;;;;5050533;28;20049;-68
2022/01/19 02:49:58;;;;;;;63.75;25.17;;;4.60;99.90;;;;;;5071163;28;20467;-67
2022/01/19 02:52:25;;;;;;;62.28;23.80;;;4.60;99.90;;;;;;5069205;28;20043;-68
2022/01/19 02:54:51;;;;;;;54.22;17.70;;;4.60;99.90;;;;;;5049539;28;20068;-68
2022/01/19 02:57:20;;;;;;;57.33;21.65;;;4.70;99.90;;;;;;5036105;28;20049;-69
2022/01/19 03:06:16;;;;;;;67.70;25.38;;;4.60;99.90;;;;;;5050093;28;20040;-68
2022/01/19 03:10:44;;;;;;;68.93;22.58;;;4.70;99.90;;;;;;5054710;28;20114;-68
2022/01/19 03:13:09;;;;;;;70.78;26.08;;;4.70;99.90;;;;;;5067960;28;20048;-68
2022/01/19 03:15:35;;;;;;;72.38;26.23;;;4.70;99.90;;;;;;5069462;28;20037;-67
2022/01/19 03:18:01;;;;;;;68.68;25.05;;;4.60;99.90;;;;;;5061941;28;20128;-67
2022/01/19 03:20:28;;;;;;;71.50;27.25;;;4.70;99.90;;;;;;5050838;28;20041;-68
2022/01/19 03:25:26;;;;;;;67.65;23.20;;;4.80;99.90;;;;;;5071077;28;20056;-67
2022/01/19 03:27:52;;;;;;;66.03;23.25;;;4.70;99.90;;;;;;5068054;28;20501;-68
2022/01/19 03:30:20;;;;;;;69.20;25.35;;;4.60;99.90;;;;;;5051044;28;20435;-67
2022/01/19 03:32:46;;;;;;;66.45;23.67;;;4.60;99.90;;;;;;5056540;28;20143;-68
2022/01/19 03:35:13;;;;;;;66.45;22.48;;;6.10;99.90;;;;;;5068901;28;20241;-67
2022/01/19 03:37:39;;;;;;;71.75;25.15;;;4.60;99.90;;;;;;5063358;28;20056;-68
2022/01/19 03:40:06;;;;;;;76.38;24.15;;;4.60;99.90;;;;;;5066371;28;20047;-68
2022/01/19 03:42:33;;;;;;;60.88;20.70;;;4.60;99.90;;;;;;5068784;28;20059;-67
2022/01/19 03:44:59;;;;;;;70.70;22.83;;;4.60;99.90;;;;;;5062570;28;20096;-68
2022/01/19 03:47:27;;;;;;;70.30;24.88;;;4.70;99.90;;;;;;5050456;28;20572;-68
2022/01/19 03:49:53;;;;;;;67.47;23.90;;;4.70;99.90;;;;;;5069103;28;20044;-70
2022/01/19 03:52:19;;;;;;;64.45;23.60;;;4.60;99.90;;;;;;5070889;28;20481;-68
2022/01/19 03:54:45;;;;;;;67.55;22.40;;;4.60;99.90;;;;;;5069158;28;20483;-68
2022/01/19 03:57:11;;;;;;;72.78;24.77;;;4.60;99.90;;;;;;5065475;28;20047;-68
2022/01/19 03:59:38;;;;;;;71.28;24.52;;;4.60;99.90;;;;;;5066517;28;20044;-68
2022/01/19 04:02:04;;;;;;;73.45;24.08;;;4.50;99.90;;;;;;5071751;28;20036;-67
2022/01/19 04:04:39;;;;;;;68.05;25.38;;;4.50;99.90;;;;;;5069400;28;20036;-68
2022/01/19 04:07:11;;;;;;;69.43;24.07;;;4.50;99.90;;;;;;5068978;28;20044;-68
2022/01/19 04:09:40;;;;;;;58.45;22.88;;;4.50;99.90;;;;;;5051092;28;20040;-67
2022/01/19 04:12:08;;;;;;;45.28;18.75;;;4.50;99.90;;;;;;5066635;28;20047;-68
2022/01/19 04:14:34;;;;;;;52.88;21.67;;;4.60;99.90;;;;;;5066640;28;20056;-67
2022/01/19 04:17:15;;;;;;;58.85;23.13;;;4.60;99.90;;;;;;5067455;28;20060;-68
2022/01/19 04:19:47;;;;;;;60.45;23.17;;;4.60;99.90;;;;;;5027286;28;20191;-68
2022/01/19 04:22:18;;;;;;;56.17;21.52;;;4.50;99.90;;;;;;5033506;28;20052;-68
2022/01/19 04:24:45;;;;;;;61.58;24.73;;;4.40;99.90;;;;;;5065345;28;20138;-68
2022/01/19 04:29:52;;;;;;;67.32;24.85;;;4.50;99.90;;;;;;5064754;28;20045;-68
2022/01/19 04:32:25;;;;;;;66.65;24.63;;;4.50;99.90;;;;;;5066520;28;20098;-68
2022/01/19 04:34:51;;;;;;;62.88;24.17;;;4.40;99.90;;;;;;5067905;28;20465;-68
2022/01/19 05:06:52;;;;;;;68.45;26.63;;;4.50;99.90;;;;;;5053403;28;20055;-68
2022/01/19 05:09:52;;;;;;;68.97;26.60;;;4.50;99.90;;;;;;5064239;28;20049;-68
2022/01/19 05:14:56;;;;;;;56.35;24.63;;;4.40;99.90;;;;;;5065365;28;20048;-68
2022/01/19 05:17:22;;;;;;;58.67;25.25;;;4.40;99.90;;;;;;5048826;28;20059;-68
2022/01/19 05:19:47;;;;;;;54.08;24.48;;;4.40;99.90;;;;;;5047974;28;20044;-68
2022/01/19 05:22:13;;;;;;;61.78;22.45;;;4.40;99.90;;;;;;5048994;28;20044;-68
2022/01/19 05:24:39;;;;;;;56.13;24.45;;;4.40;99.90;;;;;;5065357;28;20583;-68
2022/01/19 05:27:04;;;;;;;58.03;24.90;;;4.50;99.90;;;;;;5055706;28;20052;-68
2022/01/19 05:29:30;;;;;;;55.67;23.63;;;4.40;99.90;;;;;;5066616;28;20481;-68
2022/01/19 05:31:56;;;;;;;55.22;23.65;;;4.40;99.90;;;;;;5068109;28;20040;-68
2022/01/19 05:34:21;;;;;;;56.60;25.05;;;4.40;99.90;;;;;;5049201;28;20053;-68
2022/01/19 05:36:47;;;;;;;56.03;24.17;;;4.90;99.90;;;;;;5066765;28;20040;-68
2022/01/19 05:39:12;;;;;;;52.55;24.88;;;4.50;99.90;;;;;;5069064;28;20046;-68
2022/01/19 05:41:38;;;;;;;53.90;24.67;;;4.50;99.90;;;;;;5053379;28;20049;-68
2022/01/19 05:44:04;;;;;;;50.83;22.00;;;4.50;99.90;;;;;;5063899;28;20378;-68
2022/01/19 05:46:29;;;;;;;54.60;24.15;;;4.50;99.90;;;;;;5059376;28;20103;-68
2022/01/19 05:48:55;;;;;;;52.65;22.80;;;4.50;99.90;;;;;;5065791;28;20535;-68
2022/01/19 05:51:21;;;;;;;51.38;23.00;;;4.40;99.90;;;;;;5052157;28;20476;-68
2022/01/19 05:53:47;;;;;;;55.67;24.70;;;4.50;99.90;;;;;;5062885;28;20496;-68
2022/01/19 05:56:12;;;;;;;50.05;22.52;;;4.50;99.90;;;;;;5051178;28;20068;-68
2022/01/19 05:58:38;;;;;;;52.95;23.85;;;4.50;99.90;;;;;;5051642;28;20049;-68
2022/01/19 06:01:03;;;;;;;51.15;22.92;;;4.50;99.90;;;;;;5064339;28;20127;-68
2022/01/19 06:03:29;;;;;;;53.45;24.08;;;4.50;99.90;;;;;;5065396;28;20044;-68
2022/01/19 06:05:54;;;;;;;53.08;23.67;;;4.40;99.90;;;;;;5067373;28;20082;-68
2022/01/19 06:10:47;;;;;;;51.28;23.50;;;4.50;99.90;;;;;;5057241;28;20052;-69
2022/01/19 06:13:17;;;;;;;52.45;23.45;;;4.50;99.90;;;;;;5061011;28;20095;-69
2022/01/19 06:15:44;;;;;;;50.10;21.95;;;4.50;99.90;;;;;;5071641;28;20106;-69
2022/01/19 06:18:11;;;;;;;52.70;21.90;;;4.50;99.90;;;;;;5053170;28;20099;-69
2022/01/19 06:20:37;;;;;;;53.30;24.95;;;4.50;99.90;;;;;;5057546;28;20111;-69
2022/01/19 06:23:03;;;;;;;51.42;24.35;;;4.40;99.90;;;;;;5067071;28;20358;-69
2022/01/19 06:25:29;;;;;;;55.92;25.67;;;4.40;99.90;;;;;;5069201;28;20032;-69
2022/01/19 06:27:54;;;;;;;53.47;23.92;;;4.40;99.90;;;;;;5071182;28;20588;-69
2022/01/19 06:30:20;;;;;;;49.83;22.17;;;4.40;99.90;;;;;;5069862;28;20119;-69
2022/01/19 06:32:46;;;;;;;53.55;23.50;;;4.40;99.90;;;;;;5067778;28;20049;-69
2022/01/19 06:35:12;;;;;;;54.80;24.25;;;4.40;99.90;;;;;;5056523;28;20073;-69
2022/01/19 06:37:38;;;;;;;52.60;24.67;;;3.70;99.90;;;;;;5055475;28;20040;-69
2022/01/19 06:40:05;;;;;;;48.40;22.05;;;4.40;99.90;;;;;;5068931;28;20082;-69
2022/01/19 06:42:31;;;;;;;51.33;25.00;;;4.40;99.90;;;;;;5068459;28;20465;-69
2022/01/19 06:44:57;;;;;;;55.30;25.27;;;4.50;99.90;;;;;;5070825;28;20120;-68
2022/01/19 06:47:22;;;;;;;54.55;25.05;;;4.40;99.90;;;;;;5056738;28;20099;-69
2022/01/19 06:49:48;;;;;;;51.50;24.13;;;4.40;99.90;;;;;;5048744;28;20315;-69
2022/01/19 06:52:14;;;;;;;51.42;22.55;;;4.40;99.90;;;;;;5068676;28;20041;-68
2022/01/19 06:54:40;;;;;;;51.03;24.38;;;4.40;99.90;;;;;;5066880;28;20064;-68
2022/01/19 06:57:05;;;;;;;52.58;25.30;;;4.40;99.90;;;;;;5068391;28;20127;-68
2022/01/19 06:59:31;;;;;;;54.60;24.85;;;4.40;99.90;;;;;;5068754;28;20040;-69
2022/01/19 07:01:57;;;;;;;46.92;24.25;;;4.40;99.90;;;;;;5068396;28;20041;-68
2022/01/19 07:04:23;;;;;;;50.58;24.55;;;4.50;99.90;;;;;;5067310;28;20051;-68
2022/01/19 07:06:48;;;;;;;54.83;25.10;;;4.50;99.90;;;;;;5068502;28;20068;-68
2022/01/19 07:09:14;;;;;;;54.97;24.83;;;4.50;99.90;;;;;;5058152;28;20152;-69
2022/01/19 07:11:39;;;;;;;48.03;24.70;;;4.50;99.90;;;;;;5057254;28;20048;-69
2022/01/19 07:14:08;;;;;;;53.13;24.67;;;4.50;99.90;;;;;;5053398;28;20045;-70
2022/01/19 07:16:34;;;;;;;51.85;23.60;;;4.50;99.90;;;;;;5050439;28;20049;-70
2022/01/19 07:18:59;;;;;;;49.83;24.10;;;4.50;99.90;;;;;;5067240;28;20055;-69
2022/01/19 07:21:25;;;;;;;53.35;24.73;;;4.50;99.90;;;;;;5048350;28;20197;-69
2022/01/19 07:23:51;;;;;;;50.70;23.75;;;4.50;99.90;;;;;;5028706;28;20050;-70
2022/01/19 07:26:16;;;;;;;57.92;24.77;;;4.40;99.90;;;;;;5052559;28;20090;-70
2022/01/19 07:28:42;;;;;;;52.08;24.02;;;4.50;99.90;;;;;;5069865;28;20044;-70
2022/01/19 07:31:08;;;;;;;49.58;23.85;;;4.40;99.90;;;;;;5068858;28;20082;-69
2022/01/19 07:33:33;;;;;;;49.08;24.98;;;4.40;99.90;;;;;;5067982;28;20101;-69
2022/01/19 07:35:59;;;;;;;53.78;25.75;;;4.40;99.90;;;;;;5051262;28;20457;-69
2022/01/19 07:38:26;;;;;;;50.17;23.75;;;4.40;99.90;;;;;;5052957;28;20043;-69
2022/01/19 07:40:52;;;;;;;48.90;24.15;;;4.40;99.90;;;;;;5049015;28;20103;-70
2022/01/19 07:43:18;;;;;;;52.75;24.70;;;4.50;99.90;;;;;;5047916;28;20053;-69
2022/01/19 07:45:43;;;;;;;50.65;24.90;;;4.60;99.90;;;;;;5048204;28;20112;-69
2022/01/19 07:48:10;;;;;;;51.92;23.40;;;4.60;99.90;;;;;;5047497;28;20048;-70
2022/01/19 07:50:36;;;;;;;44.63;21.10;;;4.50;99.90;;;;;;5049400;28;20132;-69
2022/01/19 07:53:01;;;;;;;50.63;22.75;;;5.10;99.90;;;;;;5049373;28;20120;-69
2022/01/19 07:55:27;;;;;;;43.85;21.60;;;4.60;99.90;;;;;;5048179;28;20059;-68
2022/01/19 07:57:53;;;;;;;46.20;22.35;;;4.60;99.90;;;;;;5051282;28;20040;-69
2022/01/19 08:00:19;;;;;;;50.20;23.02;;;4.60;99.90;;;;;;5051268;28;20041;-69
2022/01/19 08:02:45;;;;;;;49.50;25.00;;;4.60;99.90;;;;;;5053233;28;20072;-68
2022/01/19 08:05:11;;;;;;;52.53;24.58;;;4.50;99.90;;;;;;5051664;28;20064;-68
2022/01/19 08:07:36;;;;;;;50.85;25.20;;;4.50;99.90;;;;;;5048188;28;20095;-66
2022/01/19 08:10:05;;;;;;;51.88;24.92;;;4.50;99.90;;;;;;5058646;28;20045;-65
2022/01/19 08:12:31;;;;;;;47.38;22.40;;;4.50;99.90;;;;;;5042510;28;20105;-65
2022/01/19 08:14:58;;;;;;;53.50;25.13;;;4.60;99.90;;;;;;5052273;28;20473;-66
2022/01/19 08:17:26;;;;;;;52.10;23.30;;;4.60;99.90;;;;;;5048794;28;20064;-65
2022/01/19 08:19:56;;;;;;;50.10;24.63;;;4.60;99.90;;;;;;5049346;28;20045;-65
2022/01/19 08:22:22;;;;;;;52.83;24.92;;;4.60;99.90;;;;;;5049246;28;20049;-65
2022/01/19 08:24:48;;;;;;;51.55;24.25;;;4.60;99.90;;;;;;5063404;28;20358;-65
2022/01/19 08:27:13;;;;;;;53.90;23.70;;;4.70;99.90;;;;;;5048758;28;20045;-65
2022/01/19 08:29:39;;;;;;;52.10;24.60;;;4.70;99.90;;;;;;5047818;28;20425;-66
2022/01/19 08:32:06;;;;;;;45.25;20.85;;;4.70;99.90;;;;;;5048141;28;20122;-65
2022/01/19 08:34:32;;;;;;;52.30;22.13;;;4.80;99.90;;;;;;5045998;28;20053;-66
2022/01/19 08:36:59;;;;;;;54.03;24.67;;;4.80;99.90;;;;;;5050912;28;20037;-65
2022/01/19 08:39:25;;;;;;;55.35;25.42;;;4.80;99.90;;;;;;5055036;28;20132;-66
2022/01/19 08:41:52;;;;;;;58.28;25.33;;;5.00;99.90;;;;;;5064761;28;20174;-66
2022/01/19 08:44:18;;;;;;;54.90;24.55;;;5.90;99.90;;;;;;5065044;28;20056;-66
2022/01/19 08:46:44;;;;;;;59.88;26.67;;;4.80;99.90;;;;;;5033373;28;20508;-66
2022/01/19 08:49:10;;;;;;;54.72;25.67;;;4.90;99.90;;;;;;5028261;28;20041;-66
2022/01/19 08:51:37;;;;;;;51.05;24.15;;;4.90;99.90;;;;;;5027587;28;20045;-65
2022/01/19 08:54:03;;;;;;;56.58;25.83;;;4.90;99.90;;;;;;5027924;28;20474;-65
2022/01/19 08:56:29;;;;;;;56.45;25.55;;;5.20;99.90;;;;;;5027885;28;20053;-67
2022/01/19 08:58:55;;;;;;;53.55;24.98;;;5.10;99.90;;;;;;5045448;28;20052;-65
2022/01/19 09:01:21;;;;;;;52.70;25.48;;;5.10;99.90;;;;;;5068889;28;20051;-66
2022/01/19 09:03:47;;;;;;;63.63;26.08;;;5.20;99.90;;;;;;5064589;28;20454;-67
2022/01/19 09:06:12;;;;;;;58.20;25.88;;;5.20;99.90;;;;;;5070373;28;20045;-65
2022/01/19 09:08:38;;;;;;;58.20;25.50;;;5.20;99.90;;;;;;5046372;28;20123;-67
2022/01/19 09:11:05;;;;;;;52.63;25.05;;;5.30;99.90;;;;;;5073973;28;20052;-65
2022/01/19 09:13:32;;;;;;;53.35;25.60;;;5.30;99.90;;;;;;5059044;28;20421;-65
2022/01/19 09:15:58;;;;;;;58.88;26.83;;;5.20;99.90;;;;;;5047402;28;20084;-65
2022/01/19 09:18:23;;;;;;;54.53;26.65;;;5.20;99.90;;;;;;5047033;28;20107;-67
2022/01/19 09:20:49;;;;;;;50.90;24.73;;;5.30;99.90;;;;;;5047460;28;20045;-67
2022/01/19 09:23:15;;;;;;;61.42;26.98;;;4.50;99.90;;;;;;5030539;28;20478;-65
2022/01/19 09:25:41;;;;;;;50.05;24.63;;;5.40;99.90;;;;;;5029246;28;20038;-65
2022/01/19 09:28:10;;;;;;;53.00;24.55;;;5.50;99.90;;;;;;5027043;28;20489;-66
2022/01/19 09:30:36;;;;;;;52.50;23.70;;;5.50;99.90;;;;;;5028193;28;20045;-65
2022/01/19 09:33:07;;;;;;;51.80;21.95;;;5.50;99.90;;;;;;5024928;28;20060;-65
2022/01/19 09:35:51;;;;;;;58.35;27.42;;;5.40;99.90;;;;;;5027663;28;20049;-64
2022/01/19 09:38:27;;;;;;;52.53;24.23;;;5.40;99.90;;;;;;5028149;28;20045;-65
2022/01/19 09:40:53;;;;;;;46.05;20.08;;;5.40;99.90;;;;;;5026715;28;20054;-66
2022/01/19 09:43:22;;;;;;;49.53;25.27;;;5.50;99.90;;;;;;5043311;28;20049;-66
2022/01/19 09:45:56;;;;;;;54.53;25.05;;;5.50;99.90;;;;;;5037344;28;20087;-66
2022/01/19 09:48:23;;;;;;;52.25;21.88;;;5.50;99.90;;;;;;5030049;28;20358;-66
2022/01/19 09:50:48;;;;;;;52.33;25.02;;;5.50;99.90;;;;;;5031933;28;20542;-66
2022/01/19 09:53:14;;;;;;;54.33;24.45;;;5.50;99.90;;;;;;5035590;28;20041;-66
2022/01/19 09:55:43;;;;;;;59.88;28.25;;;5.50;99.90;;;;;;5070438;28;20056;-66
2022/01/19 09:58:09;;;;;;;57.63;28.90;;;5.50;99.90;;;;;;5054256;28;20056;-66
2022/01/19 10:00:35;;;;;;;55.80;26.10;;;5.50;99.90;;;;;;5065931;28;20040;-66
2022/01/19 10:03:16;;;;;;;56.20;25.92;;;5.40;99.90;;;;;;5053350;28;20406;-67
2022/01/19 10:06:02;;;;;;;57.17;26.92;;;5.50;99.90;;;;;;5062078;28;20481;-65
2022/01/19 10:08:38;;;;;;;;;;;5.50;99.90;;;;;;5060471;28;20037;-67
2022/01/19 10:11:11;;;;;;;48.67;21.95;;;5.50;99.90;;;;;;5059849;28;20016;-67
2022/01/19 10:17:02;;;;;;;55.10;27.00;;;5.50;99.90;;;;;;5060856;28;20052;-67
2022/01/19 10:19:42;;;;;;;60.67;29.52;;;5.40;99.90;;;;;;5050295;28;20041;-65
2022/01/19 10:22:20;;;;;;;59.40;28.52;;;6.90;99.90;;;;;;5028621;28;20132;-67
2022/01/19 10:24:48;;;;;;;58.20;28.27;;;5.20;99.90;;;;;;5059301;28;20029;-65
2022/01/19 10:27:32;;;;;;;59.03;29.85;;;5.30;99.90;;;;;;5048807;28;20041;-66
2022/01/19 10:30:04;;;;;;;57.58;29.63;;;6.00;99.90;;;;;;5048793;28;20481;-65
2022/01/19 10:33:02;;;;;;;58.45;29.30;;;5.20;99.90;;;;;;5068659;28;20073;-65
2022/01/19 10:35:32;;;;;;;57.15;29.23;;;5.30;99.90;;;;;;5070120;28;20098;-65
2022/01/19 10:38:15;;;;;;;61.65;29.83;;;5.40;99.90;;;;;;5065359;28;20161;-65
2022/01/19 10:41:04;;;;;;;63.55;28.65;;;5.40;99.90;;;;;;5042357;28;20037;-65
2022/01/19 10:43:39;;;;;;;54.30;27.73;;;6.50;99.90;;;;;;5045387;28;20095;-65
2022/01/19 10:46:25;;;;;;;59.80;31.20;;;5.40;99.90;;;;;;5044440;28;21238;-65
2022/01/19 10:49:06;;;;;;;59.60;30.73;;;5.40;99.90;;;;;;5045310;28;20110;-65
2022/01/19 10:51:36;;;;;;;58.70;29.55;;;6.00;99.90;;;;;;5050198;28;20048;-65
2022/01/19 10:54:17;;;;;;;62.45;29.73;;;5.40;99.90;;;;;;5051006;28;20167;-65
2022/01/19 10:56:47;;;;;;;57.72;31.48;;;5.40;99.90;;;;;;5045974;28;20401;-66
2022/01/19 10:59:16;;;;;;;56.80;29.98;;;5.50;99.90;;;;;;5048306;28;20138;-65
2022/01/19 11:01:44;;;;;;;59.40;26.83;;;5.50;99.90;;;;;;5049086;28;20171;-65
2022/01/19 11:04:32;;;;;;;61.90;30.30;;;6.10;99.90;;;;;;5047637;28;20057;-66
2022/01/19 11:07:01;;;;;;;65.15;29.30;;;5.50;99.90;;;;;;5049017;28;20044;-66
2022/01/19 11:09:29;;;;;;;67.90;31.13;;;5.50;99.90;;;;;;5048063;28;20044;-66
2022/01/19 11:11:58;;;;;;;65.22;31.88;;;5.50;99.90;;;;;;5047645;28;20037;-66
2022/01/19 11:14:26;;;;;;;63.85;32.33;;;6.10;99.90;;;;;;5046112;28;20447;-66
2022/01/19 11:16:52;;;;;;;63.35;31.92;;;5.60;99.90;;;;;;5048320;28;20106;-66
2022/01/19 11:19:19;;;;;;;61.55;28.75;;;5.50;99.90;;;;;;5047449;28;20041;-66
2022/01/19 11:22:09;;;;;;;53.85;24.88;;;5.50;99.90;;;;;;5049875;28;20393;-66
2022/01/19 11:24:45;;;;;;;66.63;31.10;;;5.60;99.90;;;;;;5049457;28;20049;-65
2022/01/19 11:27:11;;;;;;;61.08;29.65;;;5.70;99.90;;;;;;5049478;28;20037;-65
2022/01/19 11:29:38;;;;;;;59.42;31.20;;;5.70;99.90;;;;;;5047383;28;20048;-65
2022/01/19 11:32:17;;;;;;;63.17;30.15;;;6.10;99.90;;;;;;5047450;28;20049;-67
2022/01/19 11:34:46;;;;;;;55.45;27.33;;;5.80;99.90;;;;;;5045377;28;20045;-65
2022/01/19 11:37:13;;;;;;;64.10;31.50;;;5.90;99.90;;;;;;5046834;28;20053;-66
2022/01/19 11:39:59;;;;;;;63.05;31.60;;;6.00;99.90;;;;;;5052486;28;20040;-66
2022/01/19 11:42:25;;;;;;;58.20;26.70;;;6.50;99.90;;;;;;5066662;28;20072;-66
2022/01/19 11:44:52;;;;;;;45.40;21.85;;;6.20;99.90;;;;;;5050746;28;20071;-66
2022/01/19 11:47:25;;;;;;;56.03;26.98;;;6.30;99.90;;;;;;5048773;28;20041;-66
2022/01/19 11:49:59;;;;;;;58.50;29.77;;;6.30;99.90;;;;;;5065929;28;20370;-66
2022/01/19 11:52:36;;;;;;;56.47;28.50;;;6.40;99.90;;;;;;5052284;28;20033;-67
2022/01/19 11:55:19;;;;;;;54.92;27.58;;;6.40;99.90;;;;;;5048303;28;20048;-66
2022/01/19 11:57:46;;;;;;;57.95;29.48;;;6.40;99.90;;;;;;5047401;28;20052;-66
2022/01/19 12:00:24;;;;;;;54.22;29.05;;;6.30;99.90;;;;;;5052294;28;20413;-66
2022/01/19 12:02:58;;;;;;;56.53;27.88;;;6.40;99.90;;;;;;5044441;28;20060;-66
2022/01/19 12:05:37;;;;;;;56.97;26.27;;;6.70;99.90;;;;;;5064754;28;20052;-66
2022/01/19 12:08:32;;;;;;;49.83;26.80;;;6.40;99.90;;;;;;5047326;28;20065;-67
2022/01/19 12:11:10;;;;;;;54.55;28.13;;;6.40;99.90;;;;;;5047237;28;20423;-66
2022/01/19 12:18:58;;;;;;;56.45;26.92;;;6.40;99.90;;;;;;5067180;28;20212;-66
2022/01/19 12:21:42;;;;;;;59.47;28.83;;;6.30;99.90;;;;;;5072265;28;20048;-67
2022/01/19 12:24:21;;;;;;;61.88;30.40;;;6.20;99.90;;;;;;5056248;28;20052;-67
2022/01/19 12:26:56;;;;;;;48.83;25.60;;;6.20;99.90;;;;;;5067032;28;20087;-67
2022/01/19 12:29:33;;;;;;;60.58;30.25;;;6.20;99.90;;;;;;5030868;28;20057;-67
2022/01/19 12:32:28;;;;;;;60.15;27.70;;;6.30;99.90;;;;;;5052659;28;20032;-67
2022/01/19 12:34:53;;;;;;;50.97;24.75;;;6.20;99.90;;;;;;5039199;28;20096;-67
2022/01/19 12:37:35;;;;;;;57.67;28.85;;;6.30;99.90;;;;;;5049320;28;20076;-67
2022/01/19 12:40:07;;;;;;;53.40;28.05;;;6.20;99.90;;;;;;5042920;28;20084;-66
2022/01/19 12:42:46;;;;;;;57.90;27.25;;;6.10;99.90;;;;;;5044496;28;20048;-66
2022/01/19 12:45:18;;;;;;;54.03;27.48;;;6.10;99.90;;;;;;5046637;28;20412;-66
2022/01/19 12:47:45;;;;;;;57.85;27.17;;;6.10;99.90;;;;;;5050465;28;20376;-66
2022/01/19 12:50:11;;;;;;;51.03;25.67;;;6.20;99.90;;;;;;5047997;28;20128;-66
2022/01/19 12:52:54;;;;;;;52.00;24.38;;;6.40;99.90;;;;;;5045633;28;20194;-66
2022/01/19 12:55:26;;;;;;;48.97;23.08;;;6.20;99.90;;;;;;5060566;28;20139;-66
2022/01/19 12:57:54;;;;;;;54.22;25.73;;;6.20;99.90;;;;;;5048773;28;20154;-66
2022/01/19 13:00:28;;;;;;;54.42;25.98;;;6.10;99.90;;;;;;5057070;28;20365;-66
2022/01/19 13:02:54;;;;;;;51.67;23.60;;;7.00;99.90;;;;;;5039948;28;20060;-66
2022/01/19 13:05:21;;;;;;;50.97;25.48;;;6.30;99.90;;;;;;5048634;28;20036;-66
2022/01/19 13:07:53;;;;;;;51.03;23.63;;;6.20;99.90;;;;;;5051594;28;20052;-65
2022/01/19 13:10:48;;;;;;;55.33;25.27;;;6.30;99.90;;;;;;5047597;28;20060;-66
2022/01/19 13:13:25;;;;;;;54.67;27.13;;;6.30;99.90;;;;;;5047291;28;20037;-67
2022/01/19 13:15:57;;;;;;;56.30;27.75;;;6.20;99.90;;;;;;5047137;28;20049;-67
2022/01/19 13:18:37;;;;;;;55.10;26.95;;;6.20;99.90;;;;;;5046320;28;20084;-66
2022/01/19 13:21:05;;;;;;;55.53;27.08;;;7.00;99.90;;;;;;5059099;28;20056;-66
2022/01/19 13:23:34;;;;;;;58.90;26.50;;;6.20;99.90;;;;;;5047948;28;20036;-66
2022/01/19 13:26:10;;;;;;;47.63;24.83;;;6.20;99.90;;;;;;5049273;28;20063;-67
2022/01/19 13:28:36;;;;;;;51.53;25.98;;;6.30;99.90;;;;;;5046942;28;20037;-67
2022/01/19 13:31:18;;;;;;;52.13;26.65;;;6.30;99.90;;;;;;5042551;28;20070;-66
2022/01/19 13:33:59;;;;;;;58.80;29.25;;;6.60;99.90;;;;;;5044385;28;20127;-66
2022/01/19 13:36:33;;;;;;;54.20;26.52;;;6.10;99.90;;;;;;5046362;28;20144;-66
2022/01/19 13:39:00;;;;;;;53.58;25.02;;;7.60;99.90;;;;;;5046192;28;20033;-66
2022/01/19 13:41:26;;;;;;;49.90;25.38;;;6.10;99.90;;;;;;5047825;28;20390;-66
2022/01/19 13:43:53;;;;;;;49.45;23.85;;;6.20;99.90;;;;;;5046742;28;20397;-66
2022/01/19 13:46:28;;;;;;;51.60;24.65;;;6.10;99.90;;;;;;5032669;28;20075;-66
2022/01/19 13:49:01;;;;;;;50.13;26.45;;;6.20;99.90;;;;;;5024732;28;20060;-66
2022/01/19 13:51:29;;;;;;;48.55;21.73;;;5.90;99.90;;;;;;5026992;28;20119;-65
2022/01/19 13:53:56;;;;;;;47.10;23.63;;;6.10;99.90;;;;;;5026533;28;20091;-67
2022/01/19 13:56:41;;;;;;;54.72;25.75;;;6.20;99.90;;;;;;5025633;28;20057;-66
2022/01/19 13:59:12;;;;;;;59.83;26.70;;;6.10;99.90;;;;;;5027001;28;20077;-66
2022/01/19 14:02:01;;;;;;;52.25;25.02;;;6.00;99.90;;;;;;5010153;28;20045;-67
2022/01/19 14:04:31;;;;;;;55.00;23.77;;;6.00;99.90;;;;;;5026720;28;20125;-67
2022/01/19 14:07:10;;;;;;;52.15;24.52;;;6.10;99.90;;;;;;5026182;28;20037;-67
2022/01/19 14:09:36;;;;;;;46.95;21.92;;;6.10;99.90;;;;;;5028512;28;20037;-67
2022/01/19 14:12:06;;;;;;;55.25;23.95;;;6.10;99.90;;;;;;5028038;28;20049;-67
2022/01/19 14:14:36;;;;;;;56.40;24.58;;;6.10;99.90;;;;;;5026383;28;20037;-68
2022/01/19 14:17:22;;;;;;;49.10;20.60;;;6.10;99.90;;;;;;5029680;28;20042;-67
2022/01/19 14:19:50;;;;;;;49.10;21.60;;;6.00;99.90;;;;;;5026929;28;20045;-67
2022/01/19 14:22:32;;;;;;;46.47;22.13;;;6.00;99.90;;;;;;5026812;28;20145;-67